GCRR/ACE METAR and TAF weather

Enter ICAO airport designator
Station Type Date Time Source
GCRR METAR 2022/11/30 11:00 UTC NOAA

GCRR 301100Z 09009KT 9999 FEW025 22/16 Q1018


Station Type Date Time Source
GCRR Decoded METAR 2022/11/30 11:00 UTC NOAA

Lanzarote / Aeropuerto, Spain (GCRR) 28-57N 013-36W 21M
Nov 30, 2022 - 06:00 AM EST / 2022.11.30 1100 UTC
Wind: from the E (090 degrees) at 10 MPH (9 KT):0
Visibility: greater than 7 mile(s):0
Sky conditions: mostly clear
Temperature: 71 F (22 C)
Dew Point: 60 F (16 C)
Relative Humidity: 68%
Pressure (altimeter): 30.06 in. Hg (1018 hPa)
ob: GCRR 301100Z 09009KT 9999 FEW025 22/16 Q1018
cycle: 11

Station Type Date Time Source
GCRR TAF 2022/11/30 09:27 UTC NOAA

TAF GCRR 300800Z 3009/0109 36009KT 9999 FEW030 TX24/3014Z TN16/0106Z PROB40
TEMPO 3009/3016 06012KT

Example: see airport list